createdAt,value
2019-01-11T00:00:02.534Z,11.47
2019-01-11T00:02:30.948Z,12.37
2019-01-11T00:04:59.664Z,11.90
2019-01-11T00:07:28.150Z,12.17
2019-01-11T00:09:56.658Z,12.40
2019-01-11T00:12:25.166Z,12.23
2019-01-11T00:14:53.578Z,13.47
2019-01-11T00:17:22.125Z,14.80
2019-01-11T00:19:50.546Z,11.90
2019-01-11T00:22:18.976Z,13.00
2019-01-11T00:24:47.384Z,13.40
2019-01-11T00:27:15.986Z,11.90
2019-01-11T00:29:44.472Z,12.57
2019-01-11T00:32:12.888Z,13.47
2019-01-11T00:34:41.476Z,12.47
2019-01-11T00:37:10.516Z,13.10
2019-01-11T00:39:39.040Z,13.73
2019-01-11T00:42:07.457Z,12.83
2019-01-11T00:44:35.945Z,12.67
2019-01-11T00:47:04.660Z,12.87
2019-01-11T00:49:33.159Z,12.33
2019-01-11T00:52:02.157Z,13.80
2019-01-11T00:54:30.916Z,13.57
2019-01-11T00:56:59.360Z,14.20
2019-01-11T00:59:27.912Z,13.83
2019-01-11T01:01:56.360Z,12.97
2019-01-11T01:04:24.836Z,15.03
2019-01-11T01:06:53.320Z,14.30
2019-01-11T01:09:21.797Z,15.33
2019-01-11T01:11:50.229Z,14.53
2019-01-11T01:14:18.752Z,13.90
2019-01-11T01:16:47.200Z,12.50
2019-01-11T01:19:20.004Z,13.53
2019-01-11T01:21:45.914Z,15.00
2019-01-11T01:24:14.365Z,14.47
2019-01-11T01:26:42.883Z,30.47
2019-01-11T01:29:11.383Z,31.30
2019-01-11T01:31:41.269Z,17.77
2019-01-11T01:34:10.624Z,13.83
2019-01-11T01:36:39.036Z,12.87
2019-01-11T01:39:08.516Z,14.93
2019-01-11T01:41:37.338Z,14.60
2019-01-11T01:44:05.952Z,16.43
2019-01-11T01:46:34.452Z,15.17
2019-01-11T01:49:02.923Z,16.07
2019-01-11T01:51:31.500Z,14.90
2019-01-11T01:53:59.929Z,15.40
2019-01-11T01:56:28.394Z,15.00
2019-01-11T01:58:56.822Z,16.10
2019-01-11T02:01:25.254Z,15.80
2019-01-11T02:03:53.872Z,15.13
2019-01-11T02:06:22.282Z,15.20
2019-01-11T02:08:50.740Z,16.20
2019-01-11T02:11:19.220Z,16.13
2019-01-11T02:13:47.730Z,17.17
2019-01-11T02:16:16.183Z,16.80
2019-01-11T02:18:44.602Z,15.17
2019-01-11T02:21:13.039Z,16.87
2019-01-11T02:23:41.463Z,16.93
2019-01-11T02:26:10.816Z,16.30
2019-01-11T02:28:39.224Z,16.63
2019-01-11T02:31:07.767Z,15.37
2019-01-11T02:33:36.263Z,15.57
2019-01-11T02:36:04.877Z,17.13
2019-01-11T02:38:33.431Z,16.10
2019-01-11T02:41:01.880Z,19.23
2019-01-11T02:43:30.292Z,16.37
2019-01-11T02:45:58.742Z,21.90
2019-01-11T02:48:27.154Z,25.40
2019-01-11T02:50:55.621Z,19.30
2019-01-11T02:53:24.050Z,15.80
2019-01-11T02:55:52.481Z,16.60
2019-01-11T02:58:21.026Z,17.07
2019-01-11T03:00:49.469Z,17.33
2019-01-11T03:03:18.158Z,16.43
2019-01-11T03:05:46.632Z,15.70
2019-01-11T03:08:15.059Z,16.47
2019-01-11T03:10:43.591Z,16.60
2019-01-11T03:13:12.001Z,15.40
2019-01-11T03:15:40.834Z,14.77
2019-01-11T03:18:09.264Z,15.33
2019-01-11T03:20:37.702Z,15.10
2019-01-11T03:23:06.133Z,15.13
2019-01-11T03:25:34.650Z,14.60
2019-01-11T03:28:03.085Z,15.50
2019-01-11T03:30:31.518Z,14.20
2019-01-11T03:33:00.122Z,13.70
2019-01-11T03:35:28.552Z,13.63
2019-01-11T03:37:57.063Z,13.43
2019-01-11T03:40:27.243Z,14.20
2019-01-11T03:42:55.780Z,14.33
2019-01-11T03:45:24.368Z,14.40
2019-01-11T03:47:52.856Z,12.90
2019-01-11T03:50:21.635Z,13.20
2019-01-11T03:52:50.145Z,14.53
2019-01-11T03:55:18.804Z,13.50
2019-01-11T03:57:47.676Z,14.40
2019-01-11T04:00:20.979Z,14.50
2019-01-11T04:02:49.575Z,14.60
2019-01-11T04:05:18.059Z,15.17
2019-01-11T04:07:46.546Z,16.37
2019-01-11T04:10:17.614Z,16.67
2019-01-11T04:12:46.003Z,16.47
2019-01-11T04:15:16.949Z,16.07
2019-01-11T04:17:47.072Z,20.10
2019-01-11T04:20:18.074Z,17.03
2019-01-11T04:22:50.983Z,18.87
2019-01-11T04:25:20.772Z,18.97
2019-01-11T04:27:50.739Z,19.73
2019-01-11T04:30:19.589Z,17.50
2019-01-11T04:32:48.150Z,17.23
2019-01-11T04:35:16.840Z,18.60
2019-01-11T04:37:45.422Z,20.73
2019-01-11T04:40:14.945Z,17.90
2019-01-11T04:42:43.360Z,25.77
2019-01-11T04:45:11.925Z,18.77
2019-01-11T04:47:40.913Z,21.13
2019-01-11T04:50:11.876Z,19.53
2019-01-11T04:52:41.019Z,21.73
2019-01-11T04:55:09.702Z,20.60
2019-01-11T04:57:38.124Z,21.47
2019-01-11T05:00:18.436Z,21.53
2019-01-11T05:02:46.854Z,21.53
2019-01-11T05:05:15.546Z,21.13
2019-01-11T05:07:43.992Z,23.13
2019-01-11T05:10:15.052Z,23.77
2019-01-11T05:12:43.500Z,22.50
2019-01-11T05:15:11.929Z,22.73
2019-01-11T05:17:40.996Z,25.70
2019-01-11T05:20:16.704Z,23.53
2019-01-11T05:22:43.667Z,22.90
2019-01-11T05:25:12.257Z,25.47
2019-01-11T05:27:41.056Z,24.33
2019-01-11T05:30:15.119Z,23.10
2019-01-11T05:32:43.663Z,23.80
2019-01-11T05:35:12.148Z,23.57
2019-01-11T05:37:41.081Z,24.20
2019-01-11T05:40:12.587Z,25.20
2019-01-11T05:42:40.996Z,27.53
2019-01-11T05:45:09.495Z,28.93
2019-01-11T05:47:37.920Z,25.27
2019-01-11T05:50:09.444Z,27.17
2019-01-11T05:52:37.945Z,27.57
2019-01-11T05:55:08.284Z,25.60
2019-01-11T05:57:38.338Z,25.00
2019-01-11T06:00:09.736Z,26.67
2019-01-11T06:02:38.232Z,25.40
2019-01-11T06:05:08.170Z,25.63
2019-01-11T06:07:38.388Z,24.30
2019-01-11T06:10:10.450Z,24.40
2019-01-11T06:12:38.909Z,25.13
2019-01-11T06:15:07.570Z,26.90
2019-01-11T06:17:36.034Z,20.53
2019-01-11T06:20:07.745Z,21.20
2019-01-11T06:22:36.180Z,22.20
2019-01-11T06:25:05.578Z,21.70
2019-01-11T06:27:35.500Z,22.83
2019-01-11T06:30:06.937Z,19.80
2019-01-11T06:32:35.368Z,21.93
2019-01-11T06:35:05.033Z,22.17
2019-01-11T06:37:33.672Z,22.10
2019-01-11T06:40:02.145Z,22.50
2019-01-11T06:42:30.656Z,20.83
2019-01-11T06:44:59.139Z,23.20
2019-01-11T06:47:27.869Z,18.87
2019-01-11T06:49:56.288Z,22.60
2019-01-11T06:52:24.801Z,21.10
2019-01-11T06:54:53.271Z,22.30
2019-01-11T06:57:25.841Z,21.27
2019-01-11T06:59:59.361Z,22.80
2019-01-11T07:02:32.381Z,20.47
2019-01-11T07:05:00.838Z,23.53
2019-01-11T07:07:31.018Z,25.77
2019-01-11T07:10:01.244Z,28.03
2019-01-11T07:12:33.755Z,18.40
2019-01-11T07:15:06.903Z,18.47
2019-01-11T07:17:34.885Z,17.23
2019-01-11T07:20:05.643Z,15.80
2019-01-11T07:22:36.748Z,15.87
2019-01-11T07:25:08.994Z,18.70
2019-01-11T07:27:42.281Z,18.33
2019-01-11T07:30:16.308Z,25.30
2019-01-11T07:32:44.903Z,30.40
2019-01-11T07:35:13.443Z,30.40
2019-01-11T07:37:45.305Z,29.37
2019-01-11T07:40:18.104Z,31.70
2019-01-11T07:42:51.157Z,31.00
2019-01-11T07:45:21.255Z,31.67
2019-01-11T07:47:49.938Z,29.50
2019-01-11T07:50:20.099Z,29.00
2019-01-11T07:52:52.294Z,28.90
2019-01-11T07:55:23.577Z,28.77
2019-01-11T07:57:52.069Z,28.90
2019-01-11T08:00:20.757Z,27.00
2019-01-11T08:02:53.787Z,29.70
2019-01-11T08:05:28.957Z,28.03
2019-01-11T08:08:01.507Z,28.33
2019-01-11T08:10:35.232Z,37.50
2019-01-11T08:13:04.911Z,33.57
2019-01-11T08:15:34.045Z,30.77
2019-01-11T08:18:06.269Z,28.47
2019-01-11T08:20:37.865Z,25.80
2019-01-11T08:23:10.634Z,26.70
2019-01-11T08:25:43.397Z,27.40
2019-01-11T08:28:13.738Z,29.77
2019-01-11T08:30:42.568Z,28.03
2019-01-11T08:33:18.477Z,27.53
2019-01-11T08:35:47.691Z,28.23
2019-01-11T08:38:20.185Z,25.17
2019-01-11T08:40:54.776Z,27.30
2019-01-11T08:43:27.753Z,25.40
2019-01-11T08:45:57.829Z,25.10
2019-01-11T08:48:26.641Z,27.53
2019-01-11T08:50:55.859Z,28.53
2019-01-11T08:53:28.973Z,26.13
2019-01-11T08:56:08.136Z,24.97
2019-01-11T08:58:35.931Z,25.57
2019-01-11T09:01:06.488Z,24.47
2019-01-11T09:03:34.510Z,26.30
2019-01-11T09:06:04.617Z,21.43
2019-01-11T09:08:38.901Z,21.87
2019-01-11T09:11:11.339Z,34.50
2019-01-11T09:13:44.613Z,22.87
2019-01-11T09:16:20.688Z,21.90
2019-01-11T09:18:44.855Z,24.07
2019-01-11T09:21:13.376Z,37.57
2019-01-11T09:23:45.819Z,25.77
2019-01-11T09:26:19.891Z,22.10
2019-01-11T09:28:53.219Z,21.07
2019-01-11T09:31:21.635Z,21.53
2019-01-11T09:33:50.092Z,22.40
2019-01-11T09:36:22.170Z,23.63
2019-01-11T09:38:54.586Z,21.03
2019-01-11T09:41:29.555Z,21.70
2019-01-11T09:44:02.159Z,20.30
2019-01-11T09:46:35.127Z,21.20
2019-01-11T09:49:03.630Z,21.57
2019-01-11T09:51:32.113Z,17.47
2019-01-11T09:54:05.455Z,20.60
2019-01-11T09:56:40.103Z,19.90
2019-01-11T09:59:13.899Z,19.77
2019-01-11T10:01:47.852Z,18.80
2019-01-11T10:04:21.943Z,20.10
2019-01-11T10:06:56.613Z,18.57
2019-01-11T10:09:29.045Z,20.23
2019-01-11T10:12:01.719Z,19.00
2019-01-11T10:14:34.785Z,34.57
2019-01-11T10:17:03.188Z,35.03
2019-01-11T10:19:31.821Z,20.50
2019-01-11T10:22:03.257Z,19.00
2019-01-11T10:24:36.348Z,18.50
2019-01-11T10:27:09.136Z,20.80
2019-01-11T10:29:37.577Z,19.43
2019-01-11T10:32:06.894Z,18.50
2019-01-11T10:34:38.631Z,17.83
2019-01-11T10:37:10.515Z,19.20
2019-01-11T10:39:41.254Z,17.67
2019-01-11T10:42:09.163Z,16.87
2019-01-11T10:44:39.412Z,18.50
2019-01-11T10:47:11.163Z,18.20
2019-01-11T10:49:39.698Z,27.77
2019-01-11T10:52:08.290Z,16.70
2019-01-11T10:54:42.377Z,18.60
2019-01-11T10:57:13.929Z,16.77
2019-01-11T10:59:46.837Z,18.77
2019-01-11T11:02:19.906Z,21.30
2019-01-11T11:04:45.487Z,21.03
2019-01-11T11:07:15.536Z,20.37
2019-01-11T11:09:47.791Z,19.90
2019-01-11T11:12:20.827Z,21.33
2019-01-11T11:14:49.355Z,18.30
2019-01-11T11:17:17.829Z,21.70
2019-01-11T11:19:51.229Z,21.60
2019-01-11T11:22:25.150Z,21.17
2019-01-11T11:24:58.325Z,19.83
2019-01-11T11:27:30.989Z,46.10
2019-01-11T11:30:03.645Z,22.77
2019-01-11T11:32:34.405Z,19.87
2019-01-11T11:35:03.246Z,22.30
2019-01-11T11:37:33.006Z,20.90
2019-01-11T11:40:05.466Z,22.10
2019-01-11T11:42:36.177Z,21.30
2019-01-11T11:45:06.481Z,23.73
2019-01-11T11:47:34.903Z,21.30
2019-01-11T11:50:09.174Z,19.57
2019-01-11T11:52:41.434Z,21.73
2019-01-11T11:55:14.115Z,22.20
2019-01-11T11:57:47.031Z,23.13
2019-01-11T12:00:21.965Z,21.73
2019-01-11T12:02:52.741Z,31.10
2019-01-11T12:05:20.780Z,29.97
2019-01-11T12:07:50.984Z,22.10
2019-01-11T12:10:25.217Z,19.80
2019-01-11T12:12:58.275Z,20.77
2019-01-11T12:15:30.939Z,21.60
2019-01-11T12:18:00.712Z,20.17
2019-01-11T12:20:29.693Z,18.98
2019-01-11T12:22:59.623Z,18.77
2019-01-11T12:25:33.033Z,19.80
2019-01-11T12:28:05.655Z,19.30
2019-01-11T12:30:34.093Z,21.07
2019-01-11T12:33:02.596Z,21.00
2019-01-11T12:35:34.037Z,20.63
2019-01-11T12:38:06.622Z,20.80
2019-01-11T12:40:36.197Z,21.00
2019-01-11T12:43:04.673Z,22.50
2019-01-11T12:45:34.858Z,21.73
2019-01-11T12:48:08.143Z,22.33
2019-01-11T12:50:41.445Z,23.10
2019-01-11T12:53:16.179Z,28.62
2019-01-11T12:55:54.290Z,31.70
2019-01-11T12:58:25.743Z,24.30
2019-01-11T13:00:57.717Z,22.60
2019-01-11T13:03:27.616Z,22.13
2019-01-11T13:05:56.084Z,23.20
2019-01-11T13:08:25.286Z,20.80
2019-01-11T13:11:03.916Z,21.37
2019-01-11T13:13:35.286Z,20.77
2019-01-11T13:16:07.187Z,22.40
2019-01-11T13:18:40.537Z,19.20
2019-01-11T13:21:08.963Z,21.37
2019-01-11T13:23:39.179Z,20.90
2019-01-11T13:26:08.839Z,23.70
2019-01-11T13:28:41.351Z,22.50
2019-01-11T13:31:09.765Z,22.07
2019-01-11T13:33:39.813Z,24.03
2019-01-11T13:36:11.125Z,22.57
2019-01-11T13:38:42.278Z,26.57
2019-01-11T13:41:12.206Z,24.60
2019-01-11T13:43:40.679Z,24.75
2019-01-11T13:46:10.966Z,27.47
2019-01-11T13:48:43.051Z,30.40
2019-01-11T13:51:12.820Z,24.93
2019-01-11T13:53:41.309Z,24.00
2019-01-11T13:56:11.327Z,24.47
2019-01-11T13:58:43.861Z,26.67
2019-01-11T14:01:13.469Z,22.10
2019-01-11T14:03:41.904Z,25.10
2019-01-11T14:06:13.261Z,24.40
2019-01-11T14:08:44.296Z,22.07
2019-01-11T14:11:12.741Z,25.23
2019-01-11T14:13:41.191Z,25.93
2019-01-11T14:16:13.859Z,22.52
2019-01-11T14:18:45.695Z,21.97
2019-01-11T14:21:15.218Z,24.37
2019-01-11T14:23:43.828Z,23.07
2019-01-11T14:26:13.300Z,25.73
2019-01-11T14:28:45.696Z,24.40
2019-01-11T14:31:14.857Z,23.40
2019-01-11T14:33:44.292Z,23.60
2019-01-11T14:36:15.113Z,27.97
2019-01-11T14:38:46.968Z,31.93
2019-01-11T14:41:26.131Z,25.90
2019-01-11T14:43:56.537Z,23.53
2019-01-11T14:46:28.796Z,22.70
2019-01-11T14:48:57.238Z,25.17
2019-01-11T14:51:27.538Z,23.20
2019-01-11T14:53:57.708Z,24.33
2019-01-11T14:56:30.069Z,21.67
2019-01-11T14:59:03.392Z,23.10
2019-01-11T15:01:31.889Z,21.80
2019-01-11T15:04:00.356Z,24.10
2019-01-11T15:06:32.138Z,27.40
2019-01-11T15:09:03.997Z,27.47
2019-01-11T15:11:32.432Z,23.60
2019-01-11T15:14:00.869Z,24.93
2019-01-11T15:16:33.176Z,28.17
2019-01-11T15:19:05.790Z,26.37
2019-01-11T15:21:36.407Z,23.70
2019-01-11T15:24:05.231Z,26.80
2019-01-11T15:26:35.278Z,26.23
2019-01-11T15:29:07.383Z,27.60
2019-01-11T15:31:37.672Z,29.30
2019-01-11T15:34:06.578Z,28.80
2019-01-11T15:36:35.016Z,29.67
2019-01-11T15:39:23.319Z,25.95
2019-01-11T15:41:52.694Z,27.53
2019-01-11T15:44:21.098Z,26.80
2019-01-11T15:46:49.595Z,29.67
2019-01-11T15:49:18.295Z,28.60
2019-01-11T15:51:46.776Z,28.77
2019-01-11T15:54:15.207Z,30.40
2019-01-11T15:56:43.612Z,32.53
2019-01-11T15:59:12.208Z,28.20
2019-01-11T16:01:40.678Z,26.07
2019-01-11T16:04:09.262Z,26.40
2019-01-11T16:06:37.885Z,26.60
2019-01-11T16:09:21.329Z,27.57
2019-01-11T16:12:09.876Z,29.00
2019-01-11T16:15:08.333Z,27.87
2019-01-11T16:17:36.810Z,26.07
2019-01-11T16:20:10.754Z,30.50
2019-01-11T16:22:39.658Z,34.80
2019-01-11T16:25:10.744Z,28.13
2019-01-11T16:27:39.887Z,33.10
2019-01-11T16:30:11.614Z,37.87
2019-01-11T16:32:40.148Z,26.47
2019-01-11T16:35:08.717Z,22.73
2019-01-11T16:37:37.263Z,23.87
2019-01-11T16:40:08.832Z,26.47
2019-01-11T16:42:38.843Z,31.50
2019-01-11T16:45:10.782Z,27.33
2019-01-11T16:47:39.280Z,25.93
2019-01-11T16:50:11.092Z,27.40
2019-01-11T16:52:46.009Z,26.90
2019-01-11T16:55:10.731Z,28.20
2019-01-11T16:57:39.180Z,25.37
2019-01-11T17:00:16.769Z,27.63
2019-01-11T17:02:46.134Z,28.60
2019-01-11T17:05:14.990Z,31.03
2019-01-11T17:07:43.601Z,27.47
2019-01-11T17:10:13.010Z,29.20
2019-01-11T17:12:41.958Z,29.40
2019-01-11T17:15:16.211Z,30.53
2019-01-11T17:17:44.733Z,29.93
2019-01-11T17:20:15.669Z,32.20
2019-01-11T17:22:44.391Z,34.50
2019-01-11T17:25:12.812Z,44.97
2019-01-11T17:27:41.242Z,40.43
2019-01-11T17:30:12.805Z,31.70
2019-01-11T17:32:41.356Z,36.60
2019-01-11T17:35:09.894Z,44.03
2019-01-11T17:37:38.354Z,27.63
2019-01-11T17:40:09.271Z,26.33
2019-01-11T17:42:37.688Z,20.30
2019-01-11T17:45:08.869Z,21.70
2019-01-11T17:47:38.926Z,20.97
2019-01-11T17:50:10.789Z,24.07
2019-01-11T17:52:39.224Z,23.17
2019-01-11T17:55:08.522Z,32.10
2019-01-11T17:57:37.098Z,29.70
2019-01-11T18:00:09.063Z,27.17
2019-01-11T18:02:37.656Z,25.97
2019-01-11T18:05:08.167Z,31.07
2019-01-11T18:07:36.591Z,33.67
2019-01-11T18:10:07.541Z,30.97
2019-01-11T18:12:36.053Z,34.47
2019-01-11T18:15:07.551Z,35.00
2019-01-11T18:17:36.061Z,35.30
2019-01-11T18:20:07.601Z,32.10
2019-01-11T18:22:36.019Z,29.60
2019-01-11T18:25:05.712Z,27.50
2019-01-11T18:27:34.115Z,27.00
2019-01-11T18:30:02.724Z,27.13
2019-01-11T18:32:31.153Z,27.87
2019-01-11T18:34:59.598Z,26.13
2019-01-11T18:37:28.055Z,28.20
2019-01-11T18:39:57.835Z,32.50
2019-01-11T18:42:26.405Z,26.60
2019-01-11T18:44:54.890Z,25.13
2019-01-11T18:47:23.304Z,34.43
2019-01-11T18:49:51.755Z,30.87
2019-01-11T18:52:20.231Z,16.57
2019-01-11T18:54:48.641Z,21.47
2019-01-11T18:57:17.115Z,20.73
2019-01-11T18:59:45.601Z,22.50
2019-01-11T19:02:14.050Z,24.40
2019-01-11T19:04:42.537Z,24.30
2019-01-11T19:07:11.001Z,27.77
2019-01-11T19:09:40.393Z,36.20
2019-01-11T19:12:25.105Z,34.33
2019-01-11T19:14:52.032Z,31.73
2019-01-11T19:17:20.494Z,27.33
2019-01-11T19:19:48.909Z,30.87
2019-01-11T19:22:17.347Z,32.67
2019-01-11T19:24:45.787Z,27.20
2019-01-11T19:27:14.814Z,26.37
2019-01-11T19:29:43.399Z,29.73
2019-01-11T19:32:11.834Z,27.67
2019-01-11T19:34:40.293Z,27.40
2019-01-11T19:37:08.713Z,30.03
2019-01-11T19:39:37.121Z,28.60
2019-01-11T19:42:05.786Z,31.73
2019-01-11T19:44:34.218Z,46.30
2019-01-11T19:47:02.613Z,36.47
2019-01-11T19:49:31.070Z,31.70
2019-01-11T19:51:59.485Z,29.50
2019-01-11T19:54:27.910Z,29.77
2019-01-11T19:56:56.363Z,32.77
2019-01-11T19:59:24.760Z,33.50
2019-01-11T20:01:53.289Z,31.20
2019-01-11T20:04:21.698Z,32.03
2019-01-11T20:06:50.227Z,32.30
2019-01-11T20:09:18.728Z,33.20
2019-01-11T20:11:47.271Z,29.73
2019-01-11T20:14:15.738Z,28.80
2019-01-11T20:16:44.165Z,28.60
2019-01-11T20:19:14.217Z,28.93
2019-01-11T20:21:42.734Z,30.93
2019-01-11T20:24:11.413Z,33.23
2019-01-11T20:26:39.894Z,30.87
2019-01-11T20:29:08.430Z,41.67
2019-01-11T20:31:36.866Z,36.37
2019-01-11T20:34:05.365Z,36.53
2019-01-11T20:36:36.967Z,38.80
2019-01-11T20:39:07.661Z,37.40
2019-01-11T20:41:36.074Z,35.97
2019-01-11T20:44:04.633Z,38.20
2019-01-11T20:46:33.169Z,38.37
2019-01-11T20:49:01.607Z,37.73
2019-01-11T20:51:30.057Z,35.37
2019-01-11T20:53:58.543Z,35.90
2019-01-11T20:56:27.203Z,39.50
2019-01-11T20:58:55.643Z,39.10
2019-01-11T21:01:24.879Z,41.13
2019-01-11T21:03:53.327Z,33.60
2019-01-11T21:06:22.187Z,29.40
2019-01-11T21:08:50.633Z,30.37
2019-01-11T21:11:19.099Z,28.93
2019-01-11T21:13:47.576Z,27.60
2019-01-11T21:16:16.077Z,28.87
2019-01-11T21:18:44.529Z,30.60
2019-01-11T21:21:13.061Z,29.37
2019-01-11T21:23:48.449Z,26.77
2019-01-11T21:26:11.634Z,28.20
2019-01-11T21:28:40.085Z,29.37
2019-01-11T21:31:08.542Z,49.70
2019-01-11T21:33:37.143Z,32.97
2019-01-11T21:36:05.729Z,31.00
2019-01-11T21:38:34.213Z,31.47
2019-01-11T21:41:02.631Z,28.90
2019-01-11T21:43:31.135Z,29.03
2019-01-11T21:46:03.397Z,26.67
2019-01-11T21:48:29.713Z,28.63
2019-01-11T21:50:58.165Z,27.77
2019-01-11T21:53:26.588Z,28.13
2019-01-11T21:55:55.078Z,28.30
2019-01-11T21:58:23.514Z,31.50
2019-01-11T22:00:52.095Z,30.97
2019-01-11T22:03:20.513Z,32.80
2019-01-11T22:05:49.187Z,30.93
2019-01-11T22:08:17.629Z,29.43
2019-01-11T22:10:46.059Z,29.00
2019-01-11T22:13:14.485Z,29.63
2019-01-11T22:15:42.925Z,30.83
2019-01-11T22:18:11.345Z,29.80
2019-01-11T22:20:39.877Z,27.27
2019-01-11T22:23:08.309Z,27.73
2019-01-11T22:25:36.763Z,31.30
2019-01-11T22:28:05.788Z,34.10
2019-01-11T22:30:34.291Z,31.07
2019-01-11T22:33:02.793Z,30.67
2019-01-11T22:35:31.239Z,43.87
2019-01-11T22:37:59.687Z,35.23
2019-01-11T22:40:28.136Z,29.27
2019-01-11T22:42:57.427Z,27.20
2019-01-11T22:45:26.045Z,26.27
2019-01-11T22:47:55.195Z,25.87
2019-01-11T22:50:24.809Z,28.67
2019-01-11T22:52:53.233Z,28.43
2019-01-11T22:55:21.831Z,28.77
2019-01-11T22:57:50.342Z,25.50
2019-01-11T23:00:35.250Z,23.93
2019-01-11T23:03:05.689Z,35.63
2019-01-11T23:05:35.523Z,27.27
2019-01-11T23:08:04.193Z,23.47
2019-01-11T23:10:51.771Z,27.70
2019-01-11T23:13:20.207Z,26.00
2019-01-11T23:15:48.951Z,21.20
2019-01-11T23:18:17.485Z,21.67
2019-01-11T23:20:46.181Z,22.00
2019-01-11T23:23:14.623Z,21.60
2019-01-11T23:25:44.631Z,22.17
2019-01-11T23:28:13.139Z,22.83
2019-01-11T23:30:42.170Z,19.90
2019-01-11T23:33:13.106Z,20.60
2019-01-11T23:35:41.624Z,21.43
2019-01-11T23:38:10.064Z,19.63
2019-01-11T23:40:38.632Z,23.30
2019-01-11T23:43:07.084Z,22.50
2019-01-11T23:45:35.516Z,22.97
2019-01-11T23:48:04.148Z,28.60
2019-01-11T23:50:32.584Z,33.30
2019-01-11T23:53:00.999Z,28.10
2019-01-11T23:55:29.424Z,33.23
2019-01-11T23:57:57.875Z,26.27
